sensor_id;sensor_type;location;lat;lon;timestamp;P1;durP1;ratioP1;P2;durP2;ratioP2
35444;SDS011;21562;49.476;6.086;2023-01-08T00:00:49;4.43;;;2.83;;
35444;SDS011;21562;49.476;6.086;2023-01-08T00:03:15;3.58;;;3.10;;
35444;SDS011;21562;49.476;6.086;2023-01-08T00:05:41;6.43;;;3.00;;
35444;SDS011;21562;49.476;6.086;2023-01-08T00:08:07;4.40;;;2.95;;
35444;SDS011;21562;49.476;6.086;2023-01-08T00:10:33;5.55;;;3.42;;
35444;SDS011;21562;49.476;6.086;2023-01-08T00:12:59;5.97;;;3.15;;
35444;SDS011;21562;49.476;6.086;2023-01-08T00:15:25;6.78;;;3.72;;
35444;SDS011;21562;49.476;6.086;2023-01-08T00:17:51;5.00;;;3.22;;
35444;SDS011;21562;49.476;6.086;2023-01-08T00:20:17;6.63;;;3.47;;
35444;SDS011;21562;49.476;6.086;2023-01-08T00:22:42;4.63;;;3.20;;
35444;SDS011;21562;49.476;6.086;2023-01-08T00:25:08;5.13;;;3.70;;
35444;SDS011;21562;49.476;6.086;2023-01-08T00:27:34;5.40;;;3.33;;
35444;SDS011;21562;49.476;6.086;2023-01-08T00:29:59;5.18;;;3.17;;
35444;SDS011;21562;49.476;6.086;2023-01-08T00:32:25;5.97;;;4.18;;
35444;SDS011;21562;49.476;6.086;2023-01-08T00:34:51;5.45;;;3.53;;
35444;SDS011;21562;49.476;6.086;2023-01-08T00:37:18;5.80;;;3.67;;
35444;SDS011;21562;49.476;6.086;2023-01-08T00:39:44;7.82;;;3.60;;
35444;SDS011;21562;49.476;6.086;2023-01-08T00:42:10;6.82;;;3.83;;
35444;SDS011;21562;49.476;6.086;2023-01-08T00:44:36;7.72;;;3.65;;
35444;SDS011;21562;49.476;6.086;2023-01-08T00:47:02;4.45;;;3.25;;
35444;SDS011;21562;49.476;6.086;2023-01-08T00:49:27;6.32;;;3.83;;
35444;SDS011;21562;49.476;6.086;2023-01-08T00:51:53;9.50;;;3.40;;
35444;SDS011;21562;49.476;6.086;2023-01-08T00:54:20;7.80;;;4.13;;
35444;SDS011;21562;49.476;6.086;2023-01-08T00:56:46;6.88;;;4.05;;
35444;SDS011;21562;49.476;6.086;2023-01-08T00:59:12;6.15;;;3.40;;
35444;SDS011;21562;49.476;6.086;2023-01-08T01:01:37;6.20;;;3.83;;
35444;SDS011;21562;49.476;6.086;2023-01-08T01:04:03;3.88;;;3.00;;
35444;SDS011;21562;49.476;6.086;2023-01-08T01:06:29;4.93;;;3.13;;
35444;SDS011;21562;49.476;6.086;2023-01-08T01:08:55;5.60;;;3.45;;
35444;SDS011;21562;49.476;6.086;2023-01-08T01:11:22;5.43;;;3.42;;
35444;SDS011;21562;49.476;6.086;2023-01-08T01:13:49;4.50;;;2.63;;
35444;SDS011;21562;49.476;6.086;2023-01-08T01:16:16;5.13;;;3.35;;
35444;SDS011;21562;49.476;6.086;2023-01-08T01:18:42;5.30;;;3.60;;
35444;SDS011;21562;49.476;6.086;2023-01-08T01:21:20;5.65;;;3.58;;
35444;SDS011;21562;49.476;6.086;2023-01-08T01:23:48;6.32;;;3.63;;
35444;SDS011;21562;49.476;6.086;2023-01-08T01:26:15;5.65;;;3.38;;
35444;SDS011;21562;49.476;6.086;2023-01-08T01:28:41;5.28;;;3.08;;
35444;SDS011;21562;49.476;6.086;2023-01-08T01:31:08;30.90;;;4.55;;
35444;SDS011;21562;49.476;6.086;2023-01-08T01:33:37;5.47;;;3.03;;
35444;SDS011;21562;49.476;6.086;2023-01-08T01:36:04;5.10;;;3.05;;
35444;SDS011;21562;49.476;6.086;2023-01-08T01:38:30;8.70;;;3.08;;
35444;SDS011;21562;49.476;6.086;2023-01-08T01:40:55;5.28;;;2.85;;
35444;SDS011;21562;49.476;6.086;2023-01-08T01:49:07;2.88;;;2.30;;
35444;SDS011;21562;49.476;6.086;2023-01-08T01:51:43;3.85;;;2.50;;
35444;SDS011;21562;49.476;6.086;2023-01-08T01:54:13;4.13;;;2.15;;
35444;SDS011;21562;49.476;6.086;2023-01-08T01:56:41;5.55;;;2.88;;
35444;SDS011;21562;49.476;6.086;2023-01-08T01:59:07;4.35;;;2.30;;
35444;SDS011;21562;49.476;6.086;2023-01-08T02:01:34;6.25;;;2.40;;
35444;SDS011;21562;49.476;6.086;2023-01-08T02:04:01;4.68;;;3.05;;
35444;SDS011;21562;49.476;6.086;2023-01-08T02:06:36;4.15;;;2.40;;
35444;SDS011;21562;49.476;6.086;2023-01-08T02:12:09;3.00;;;2.30;;
35444;SDS011;21562;49.476;6.086;2023-01-08T02:20:21;3.28;;;2.00;;
35444;SDS011;21562;49.476;6.086;2023-01-08T02:28:26;3.15;;;2.15;;
35444;SDS011;21562;49.476;6.086;2023-01-08T02:30:53;4.45;;;2.63;;
35444;SDS011;21562;49.476;6.086;2023-01-08T02:33:19;3.40;;;2.30;;
35444;SDS011;21562;49.476;6.086;2023-01-08T02:35:49;4.28;;;2.30;;
35444;SDS011;21562;49.476;6.086;2023-01-08T02:38:18;4.65;;;2.60;;
35444;SDS011;21562;49.476;6.086;2023-01-08T02:44:03;3.35;;;2.17;;
35444;SDS011;21562;49.476;6.086;2023-01-08T02:46:10;3.65;;;2.53;;
35444;SDS011;21562;49.476;6.086;2023-01-08T02:48:47;3.60;;;2.78;;
35444;SDS011;21562;49.476;6.086;2023-01-08T02:51:18;3.42;;;2.60;;
35444;SDS011;21562;49.476;6.086;2023-01-08T02:53:46;5.80;;;2.90;;
35444;SDS011;21562;49.476;6.086;2023-01-08T02:56:16;6.72;;;2.83;;
35444;SDS011;21562;49.476;6.086;2023-01-08T02:58:46;5.85;;;2.90;;
35444;SDS011;21562;49.476;6.086;2023-01-08T03:01:14;4.88;;;3.45;;
35444;SDS011;21562;49.476;6.086;2023-01-08T03:03:43;4.50;;;3.40;;
35444;SDS011;21562;49.476;6.086;2023-01-08T03:06:14;7.32;;;3.47;;
35444;SDS011;21562;49.476;6.086;2023-01-08T03:08:44;5.72;;;3.13;;
35444;SDS011;21562;49.476;6.086;2023-01-08T03:11:13;10.00;;;3.88;;
35444;SDS011;21562;49.476;6.086;2023-01-08T03:16:25;5.22;;;3.55;;
35444;SDS011;21562;49.476;6.086;2023-01-08T03:18:56;4.18;;;3.22;;
35444;SDS011;21562;49.476;6.086;2023-01-08T03:21:26;5.93;;;3.65;;
35444;SDS011;21562;49.476;6.086;2023-01-08T03:23:53;7.90;;;3.70;;
35444;SDS011;21562;49.476;6.086;2023-01-08T03:26:20;7.50;;;3.50;;
35444;SDS011;21562;49.476;6.086;2023-01-08T03:28:53;8.10;;;4.28;;
35444;SDS011;21562;49.476;6.086;2023-01-08T03:31:21;6.90;;;4.00;;
35444;SDS011;21562;49.476;6.086;2023-01-08T03:33:51;6.93;;;3.58;;
35444;SDS011;21562;49.476;6.086;2023-01-08T03:36:19;6.53;;;3.70;;
35444;SDS011;21562;49.476;6.086;2023-01-08T03:39:07;6.22;;;4.10;;
35444;SDS011;21562;49.476;6.086;2023-01-08T03:41:39;5.25;;;3.47;;
35444;SDS011;21562;49.476;6.086;2023-01-08T03:44:06;6.20;;;3.80;;
35444;SDS011;21562;49.476;6.086;2023-01-08T03:46:32;7.70;;;4.22;;
35444;SDS011;21562;49.476;6.086;2023-01-08T03:49:02;7.20;;;3.80;;
35444;SDS011;21562;49.476;6.086;2023-01-08T03:51:37;4.80;;;3.83;;
35444;SDS011;21562;49.476;6.086;2023-01-08T03:54:08;16.85;;;4.15;;
35444;SDS011;21562;49.476;6.086;2023-01-08T03:56:37;4.88;;;3.72;;
35444;SDS011;21562;49.476;6.086;2023-01-08T03:59:03;4.68;;;3.20;;
35444;SDS011;21562;49.476;6.086;2023-01-08T04:01:29;6.53;;;3.70;;
35444;SDS011;21562;49.476;6.086;2023-01-08T04:03:54;6.85;;;3.47;;
35444;SDS011;21562;49.476;6.086;2023-01-08T04:06:20;5.07;;;3.20;;
35444;SDS011;21562;49.476;6.086;2023-01-08T04:08:46;4.57;;;3.30;;
35444;SDS011;21562;49.476;6.086;2023-01-08T04:11:12;5.57;;;3.45;;
35444;SDS011;21562;49.476;6.086;2023-01-08T04:13:38;6.85;;;3.20;;
35444;SDS011;21562;49.476;6.086;2023-01-08T04:16:04;6.35;;;2.95;;
35444;SDS011;21562;49.476;6.086;2023-01-08T04:18:30;4.55;;;3.13;;
35444;SDS011;21562;49.476;6.086;2023-01-08T04:20:56;6.13;;;3.03;;
35444;SDS011;21562;49.476;6.086;2023-01-08T04:23:21;5.35;;;2.88;;
35444;SDS011;21562;49.476;6.086;2023-01-08T04:25:47;3.83;;;2.42;;
35444;SDS011;21562;49.476;6.086;2023-01-08T04:28:13;4.75;;;2.40;;
35444;SDS011;21562;49.476;6.086;2023-01-08T04:30:38;5.40;;;2.78;;
35444;SDS011;21562;49.476;6.086;2023-01-08T04:33:04;3.20;;;2.40;;
35444;SDS011;21562;49.476;6.086;2023-01-08T04:35:30;4.30;;;2.13;;
35444;SDS011;21562;49.476;6.086;2023-01-08T04:37:55;5.82;;;3.42;;
35444;SDS011;21562;49.476;6.086;2023-01-08T04:40:21;3.78;;;1.90;;
35444;SDS011;21562;49.476;6.086;2023-01-08T04:42:47;6.45;;;2.60;;
35444;SDS011;21562;49.476;6.086;2023-01-08T04:45:12;3.30;;;2.03;;
35444;SDS011;21562;49.476;6.086;2023-01-08T04:47:38;6.43;;;2.22;;
35444;SDS011;21562;49.476;6.086;2023-01-08T04:50:04;4.70;;;2.10;;
35444;SDS011;21562;49.476;6.086;2023-01-08T04:52:30;2.58;;;1.70;;
35444;SDS011;21562;49.476;6.086;2023-01-08T04:54:56;3.70;;;1.85;;
35444;SDS011;21562;49.476;6.086;2023-01-08T04:57:21;4.70;;;1.90;;
35444;SDS011;21562;49.476;6.086;2023-01-08T04:59:47;3.75;;;1.70;;
35444;SDS011;21562;49.476;6.086;2023-01-08T05:02:13;1.80;;;1.60;;
35444;SDS011;21562;49.476;6.086;2023-01-08T05:04:39;3.92;;;1.30;;
35444;SDS011;21562;49.476;6.086;2023-01-08T05:07:04;4.47;;;1.50;;
35444;SDS011;21562;49.476;6.086;2023-01-08T05:09:31;2.78;;;1.33;;
35444;SDS011;21562;49.476;6.086;2023-01-08T05:11:57;2.10;;;1.38;;
35444;SDS011;21562;49.476;6.086;2023-01-08T05:14:23;2.30;;;1.33;;
35444;SDS011;21562;49.476;6.086;2023-01-08T05:16:49;1.88;;;1.27;;
35444;SDS011;21562;49.476;6.086;2023-01-08T05:19:14;3.70;;;1.27;;
35444;SDS011;21562;49.476;6.086;2023-01-08T05:21:40;4.75;;;1.40;;
35444;SDS011;21562;49.476;6.086;2023-01-08T05:24:06;2.42;;;1.80;;
35444;SDS011;21562;49.476;6.086;2023-01-08T05:26:33;3.65;;;1.40;;
35444;SDS011;21562;49.476;6.086;2023-01-08T05:28:59;1.23;;;1.00;;
35444;SDS011;21562;49.476;6.086;2023-01-08T05:31:25;2.72;;;1.30;;
35444;SDS011;21562;49.476;6.086;2023-01-08T05:33:50;2.63;;;1.45;;
35444;SDS011;21562;49.476;6.086;2023-01-08T05:36:16;2.65;;;1.23;;
35444;SDS011;21562;49.476;6.086;2023-01-08T05:38:42;2.83;;;0.98;;
35444;SDS011;21562;49.476;6.086;2023-01-08T05:41:08;2.78;;;0.88;;
35444;SDS011;21562;49.476;6.086;2023-01-08T05:43:34;2.90;;;1.10;;
35444;SDS011;21562;49.476;6.086;2023-01-08T05:46:00;2.60;;;0.98;;
35444;SDS011;21562;49.476;6.086;2023-01-08T05:48:27;2.65;;;1.30;;
35444;SDS011;21562;49.476;6.086;2023-01-08T05:50:54;1.73;;;0.95;;
35444;SDS011;21562;49.476;6.086;2023-01-08T05:53:20;2.05;;;0.77;;
35444;SDS011;21562;49.476;6.086;2023-01-08T05:55:45;9.88;;;2.55;;
35444;SDS011;21562;49.476;6.086;2023-01-08T05:58:11;1.83;;;1.08;;
35444;SDS011;21562;49.476;6.086;2023-01-08T06:00:37;2.22;;;1.10;;
35444;SDS011;21562;49.476;6.086;2023-01-08T06:03:03;2.65;;;1.10;;
35444;SDS011;21562;49.476;6.086;2023-01-08T06:05:30;3.42;;;1.13;;
35444;SDS011;21562;49.476;6.086;2023-01-08T06:07:56;2.15;;;1.00;;
35444;SDS011;21562;49.476;6.086;2023-01-08T06:10:23;1.73;;;1.00;;
35444;SDS011;21562;49.476;6.086;2023-01-08T06:12:49;3.28;;;1.58;;
35444;SDS011;21562;49.476;6.086;2023-01-08T06:15:15;1.55;;;1.17;;
35444;SDS011;21562;49.476;6.086;2023-01-08T06:17:40;1.98;;;1.17;;
35444;SDS011;21562;49.476;6.086;2023-01-08T06:20:08;2.63;;;1.33;;
35444;SDS011;21562;49.476;6.086;2023-01-08T06:22:34;5.20;;;1.02;;
35444;SDS011;21562;49.476;6.086;2023-01-08T06:25:00;1.90;;;0.98;;
35444;SDS011;21562;49.476;6.086;2023-01-08T06:27:26;4.18;;;1.30;;
35444;SDS011;21562;49.476;6.086;2023-01-08T06:29:53;3.22;;;1.00;;
35444;SDS011;21562;49.476;6.086;2023-01-08T06:32:18;4.90;;;1.80;;
35444;SDS011;21562;49.476;6.086;2023-01-08T06:34:44;2.50;;;0.90;;
35444;SDS011;21562;49.476;6.086;2023-01-08T06:37:10;2.40;;;0.98;;
35444;SDS011;21562;49.476;6.086;2023-01-08T06:39:35;4.43;;;1.00;;
35444;SDS011;21562;49.476;6.086;2023-01-08T06:42:01;4.00;;;1.10;;
35444;SDS011;21562;49.476;6.086;2023-01-08T06:44:27;2.63;;;1.08;;
35444;SDS011;21562;49.476;6.086;2023-01-08T06:46:52;3.33;;;1.10;;
35444;SDS011;21562;49.476;6.086;2023-01-08T06:49:18;3.08;;;0.75;;
35444;SDS011;21562;49.476;6.086;2023-01-08T06:51:44;2.15;;;0.95;;
35444;SDS011;21562;49.476;6.086;2023-01-08T06:54:10;2.53;;;1.10;;
35444;SDS011;21562;49.476;6.086;2023-01-08T06:56:36;4.13;;;0.82;;
35444;SDS011;21562;49.476;6.086;2023-01-08T06:59:01;3.28;;;1.10;;
35444;SDS011;21562;49.476;6.086;2023-01-08T07:01:27;1.83;;;1.02;;
35444;SDS011;21562;49.476;6.086;2023-01-08T07:03:53;6.15;;;1.42;;
35444;SDS011;21562;49.476;6.086;2023-01-08T07:06:20;2.95;;;1.27;;
35444;SDS011;21562;49.476;6.086;2023-01-08T07:08:47;2.65;;;1.05;;
35444;SDS011;21562;49.476;6.086;2023-01-08T07:11:13;3.85;;;1.17;;
35444;SDS011;21562;49.476;6.086;2023-01-08T07:13:40;3.08;;;1.48;;
35444;SDS011;21562;49.476;6.086;2023-01-08T07:16:07;1.95;;;1.10;;
35444;SDS011;21562;49.476;6.086;2023-01-08T07:18:34;2.22;;;1.20;;
35444;SDS011;21562;49.476;6.086;2023-01-08T07:21:00;3.28;;;1.00;;
35444;SDS011;21562;49.476;6.086;2023-01-08T07:23:27;2.80;;;1.10;;
35444;SDS011;21562;49.476;6.086;2023-01-08T07:25:53;3.67;;;1.23;;
35444;SDS011;21562;49.476;6.086;2023-01-08T07:28:18;1.77;;;0.98;;
35444;SDS011;21562;49.476;6.086;2023-01-08T07:30:44;4.53;;;1.33;;
35444;SDS011;21562;49.476;6.086;2023-01-08T07:33:10;1.60;;;1.02;;
35444;SDS011;21562;49.476;6.086;2023-01-08T07:35:36;1.88;;;1.00;;
35444;SDS011;21562;49.476;6.086;2023-01-08T07:38:03;3.03;;;1.05;;
35444;SDS011;21562;49.476;6.086;2023-01-08T07:40:29;3.22;;;1.17;;
35444;SDS011;21562;49.476;6.086;2023-01-08T07:42:56;2.22;;;1.20;;
35444;SDS011;21562;49.476;6.086;2023-01-08T07:45:26;2.50;;;1.17;;
35444;SDS011;21562;49.476;6.086;2023-01-08T07:47:53;6.13;;;1.35;;
35444;SDS011;21562;49.476;6.086;2023-01-08T07:50:20;2.20;;;0.90;;
35444;SDS011;21562;49.476;6.086;2023-01-08T07:52:46;2.38;;;1.58;;
35444;SDS011;21562;49.476;6.086;2023-01-08T07:55:11;5.25;;;1.45;;
35444;SDS011;21562;49.476;6.086;2023-01-08T07:57:37;2.85;;;1.40;;
35444;SDS011;21562;49.476;6.086;2023-01-08T08:00:04;3.92;;;1.70;;
35444;SDS011;21562;49.476;6.086;2023-01-08T08:02:30;4.00;;;1.40;;
35444;SDS011;21562;49.476;6.086;2023-01-08T08:04:56;6.00;;;1.73;;
35444;SDS011;21562;49.476;6.086;2023-01-08T08:07:22;4.45;;;1.70;;
35444;SDS011;21562;49.476;6.086;2023-01-08T08:09:47;4.07;;;1.35;;
35444;SDS011;21562;49.476;6.086;2023-01-08T08:12:13;1.70;;;1.17;;
35444;SDS011;21562;49.476;6.086;2023-01-08T08:14:39;1.88;;;0.80;;
35444;SDS011;21562;49.476;6.086;2023-01-08T08:17:04;2.97;;;1.10;;
35444;SDS011;21562;49.476;6.086;2023-01-08T08:19:30;9.48;;;1.73;;
35444;SDS011;21562;49.476;6.086;2023-01-08T08:21:56;2.83;;;1.58;;
35444;SDS011;21562;49.476;6.086;2023-01-08T08:24:21;2.50;;;1.20;;
35444;SDS011;21562;49.476;6.086;2023-01-08T08:26:47;2.78;;;1.25;;
35444;SDS011;21562;49.476;6.086;2023-01-08T08:29:14;6.57;;;1.35;;
35444;SDS011;21562;49.476;6.086;2023-01-08T08:31:40;3.05;;;1.27;;
35444;SDS011;21562;49.476;6.086;2023-01-08T08:34:06;5.50;;;1.30;;
35444;SDS011;21562;49.476;6.086;2023-01-08T08:36:32;2.00;;;1.10;;
35444;SDS011;21562;49.476;6.086;2023-01-08T08:38:58;4.00;;;1.15;;
35444;SDS011;21562;49.476;6.086;2023-01-08T08:41:25;3.15;;;0.90;;
35444;SDS011;21562;49.476;6.086;2023-01-08T08:43:51;4.05;;;1.23;;
35444;SDS011;21562;49.476;6.086;2023-01-08T08:46:17;2.53;;;0.90;;
35444;SDS011;21562;49.476;6.086;2023-01-08T08:48:43;4.65;;;1.02;;
35444;SDS011;21562;49.476;6.086;2023-01-08T08:51:10;1.45;;;1.00;;
35444;SDS011;21562;49.476;6.086;2023-01-08T08:53:36;5.53;;;1.23;;
35444;SDS011;21562;49.476;6.086;2023-01-08T08:56:02;4.53;;;0.75;;
35444;SDS011;21562;49.476;6.086;2023-01-08T08:58:28;3.30;;;1.00;;
35444;SDS011;21562;49.476;6.086;2023-01-08T09:00:53;5.72;;;1.00;;
35444;SDS011;21562;49.476;6.086;2023-01-08T09:03:19;2.13;;;0.73;;
35444;SDS011;21562;49.476;6.086;2023-01-08T09:05:45;2.92;;;0.93;;
35444;SDS011;21562;49.476;6.086;2023-01-08T09:08:11;3.42;;;0.82;;
35444;SDS011;21562;49.476;6.086;2023-01-08T09:10:37;3.03;;;0.88;;
35444;SDS011;21562;49.476;6.086;2023-01-08T09:13:06;1.85;;;0.82;;
35444;SDS011;21562;49.476;6.086;2023-01-08T09:15:32;1.95;;;1.17;;
35444;SDS011;21562;49.476;6.086;2023-01-08T09:17:57;4.80;;;1.20;;
35444;SDS011;21562;49.476;6.086;2023-01-08T09:20:24;1.30;;;0.77;;
35444;SDS011;21562;49.476;6.086;2023-01-08T09:22:50;2.60;;;1.08;;
35444;SDS011;21562;49.476;6.086;2023-01-08T09:25:17;3.97;;;1.15;;
35444;SDS011;21562;49.476;6.086;2023-01-08T09:27:43;2.60;;;1.02;;
35444;SDS011;21562;49.476;6.086;2023-01-08T09:30:09;3.38;;;1.55;;
35444;SDS011;21562;49.476;6.086;2023-01-08T09:32:35;2.50;;;1.08;;
35444;SDS011;21562;49.476;6.086;2023-01-08T09:35:02;2.17;;;0.70;;
35444;SDS011;21562;49.476;6.086;2023-01-08T09:37:29;19.05;;;4.00;;
35444;SDS011;21562;49.476;6.086;2023-01-08T09:39:55;23.15;;;3.45;;
35444;SDS011;21562;49.476;6.086;2023-01-08T09:42:22;11.30;;;2.88;;
35444;SDS011;21562;49.476;6.086;2023-01-08T09:44:51;7.72;;;2.38;;
35444;SDS011;21562;49.476;6.086;2023-01-08T09:47:28;3.53;;;0.95;;
35444;SDS011;21562;49.476;6.086;2023-01-08T09:50:02;2.13;;;0.82;;
35444;SDS011;21562;49.476;6.086;2023-01-08T09:52:31;2.27;;;0.60;;
35444;SDS011;21562;49.476;6.086;2023-01-08T09:54:58;3.00;;;0.70;;
35444;SDS011;21562;49.476;6.086;2023-01-08T09:57:24;2.25;;;0.80;;
35444;SDS011;21562;49.476;6.086;2023-01-08T09:59:51;5.10;;;2.47;;
35444;SDS011;21562;49.476;6.086;2023-01-08T10:02:20;4.43;;;1.52;;
35444;SDS011;21562;49.476;6.086;2023-01-08T10:04:58;3.15;;;0.60;;
35444;SDS011;21562;49.476;6.086;2023-01-08T10:07:25;1.42;;;0.75;;
35444;SDS011;21562;49.476;6.086;2023-01-08T10:09:52;3.35;;;0.75;;
35444;SDS011;21562;49.476;6.086;2023-01-08T10:12:29;2.60;;;0.80;;
35444;SDS011;21562;49.476;6.086;2023-01-08T10:15:06;1.63;;;0.60;;
35444;SDS011;21562;49.476;6.086;2023-01-08T10:17:39;0.80;;;0.60;;
35444;SDS011;21562;49.476;6.086;2023-01-08T10:20:24;1.52;;;0.45;;
35444;SDS011;21562;49.476;6.086;2023-01-08T10:22:51;1.45;;;0.60;;
35444;SDS011;21562;49.476;6.086;2023-01-08T10:25:24;0.52;;;0.40;;
35444;SDS011;21562;49.476;6.086;2023-01-08T10:27:59;3.55;;;0.50;;
35444;SDS011;21562;49.476;6.086;2023-01-08T10:32:55;0.75;;;0.40;;
35444;SDS011;21562;49.476;6.086;2023-01-08T10:35:27;3.58;;;0.60;;
35444;SDS011;21562;49.476;6.086;2023-01-08T10:37:59;2.60;;;0.70;;
35444;SDS011;21562;49.476;6.086;2023-01-08T10:40:27;0.90;;;0.50;;
35444;SDS011;21562;49.476;6.086;2023-01-08T10:43:03;0.82;;;0.43;;
35444;SDS011;21562;49.476;6.086;2023-01-08T10:45:31;3.70;;;0.60;;
35444;SDS011;21562;49.476;6.086;2023-01-08T10:47:58;1.60;;;0.35;;
35444;SDS011;21562;49.476;6.086;2023-01-08T10:50:27;1.20;;;0.70;;
35444;SDS011;21562;49.476;6.086;2023-01-08T10:52:55;2.25;;;0.70;;
35444;SDS011;21562;49.476;6.086;2023-01-08T10:55:27;1.35;;;0.47;;
35444;SDS011;21562;49.476;6.086;2023-01-08T11:02:56;2.63;;;0.60;;
35444;SDS011;21562;49.476;6.086;2023-01-08T11:05:28;1.10;;;0.50;;
35444;SDS011;21562;49.476;6.086;2023-01-08T11:07:56;3.00;;;0.88;;
35444;SDS011;21562;49.476;6.086;2023-01-08T11:10:24;1.92;;;0.60;;
35444;SDS011;21562;49.476;6.086;2023-01-08T11:12:55;2.70;;;0.57;;
35444;SDS011;21562;49.476;6.086;2023-01-08T11:20:41;4.82;;;0.98;;
35444;SDS011;21562;49.476;6.086;2023-01-08T11:25:41;3.83;;;0.52;;
35444;SDS011;21562;49.476;6.086;2023-01-08T11:28:13;1.88;;;0.40;;
35444;SDS011;21562;49.476;6.086;2023-01-08T11:30:47;3.80;;;0.90;;
35444;SDS011;21562;49.476;6.086;2023-01-08T11:33:20;2.63;;;0.75;;
35444;SDS011;21562;49.476;6.086;2023-01-08T11:38:56;1.80;;;0.63;;
35444;SDS011;21562;49.476;6.086;2023-01-08T11:44:11;6.20;;;0.85;;
35444;SDS011;21562;49.476;6.086;2023-01-08T11:46:48;3.40;;;0.68;;
35444;SDS011;21562;49.476;6.086;2023-01-08T11:58:25;3.33;;;0.90;;
35444;SDS011;21562;49.476;6.086;2023-01-08T12:09:21;3.13;;;0.70;;
35444;SDS011;21562;49.476;6.086;2023-01-08T12:11:54;4.28;;;0.60;;
35444;SDS011;21562;49.476;6.086;2023-01-08T12:17:34;4.68;;;0.63;;
35444;SDS011;21562;49.476;6.086;2023-01-08T12:20:20;3.10;;;0.65;;
35444;SDS011;21562;49.476;6.086;2023-01-08T12:28:27;1.63;;;0.80;;
35444;SDS011;21562;49.476;6.086;2023-01-08T12:34:02;3.58;;;0.65;;
35444;SDS011;21562;49.476;6.086;2023-01-08T12:36:58;2.28;;;0.60;;
35444;SDS011;21562;49.476;6.086;2023-01-08T12:42:06;3.95;;;0.93;;
35444;SDS011;21562;49.476;6.086;2023-01-08T12:44:37;3.90;;;0.80;;
35444;SDS011;21562;49.476;6.086;2023-01-08T12:47:04;1.85;;;1.02;;
35444;SDS011;21562;49.476;6.086;2023-01-08T12:49:37;4.88;;;0.80;;
35444;SDS011;21562;49.476;6.086;2023-01-08T12:52:15;4.88;;;0.82;;
35444;SDS011;21562;49.476;6.086;2023-01-08T12:54:51;3.92;;;0.88;;
35444;SDS011;21562;49.476;6.086;2023-01-08T12:57:29;1.92;;;0.65;;
35444;SDS011;21562;49.476;6.086;2023-01-08T13:00:07;2.30;;;0.70;;
35444;SDS011;21562;49.476;6.086;2023-01-08T13:03:02;3.83;;;0.75;;
35444;SDS011;21562;49.476;6.086;2023-01-08T13:05:33;2.17;;;0.75;;
35444;SDS011;21562;49.476;6.086;2023-01-08T13:08:06;2.15;;;0.85;;
35444;SDS011;21562;49.476;6.086;2023-01-08T13:10:49;2.80;;;0.70;;
35444;SDS011;21562;49.476;6.086;2023-01-08T13:18:49;7.50;;;2.28;;
35444;SDS011;21562;49.476;6.086;2023-01-08T13:21:28;6.18;;;0.75;;
35444;SDS011;21562;49.476;6.086;2023-01-08T13:24:31;5.82;;;0.80;;
35444;SDS011;21562;49.476;6.086;2023-01-08T13:29:44;5.53;;;0.85;;
35444;SDS011;21562;49.476;6.086;2023-01-08T13:35:21;7.03;;;1.02;;
35444;SDS011;21562;49.476;6.086;2023-01-08T13:38:04;9.38;;;0.70;;
35444;SDS011;21562;49.476;6.086;2023-01-08T13:43:20;6.60;;;0.60;;
35444;SDS011;21562;49.476;6.086;2023-01-08T13:46:17;7.03;;;0.50;;
35444;SDS011;21562;49.476;6.086;2023-01-08T13:49:00;3.53;;;0.75;;
35444;SDS011;21562;49.476;6.086;2023-01-08T13:56:36;12.20;;;0.70;;
35444;SDS011;21562;49.476;6.086;2023-01-08T13:59:02;8.57;;;0.68;;
35444;SDS011;21562;49.476;6.086;2023-01-08T14:01:29;2.63;;;0.63;;
35444;SDS011;21562;49.476;6.086;2023-01-08T14:03:56;5.93;;;0.60;;
35444;SDS011;21562;49.476;6.086;2023-01-08T14:06:23;5.05;;;0.70;;
35444;SDS011;21562;49.476;6.086;2023-01-08T14:08:54;2.22;;;0.50;;
35444;SDS011;21562;49.476;6.086;2023-01-08T14:11:32;5.10;;;0.70;;
35444;SDS011;21562;49.476;6.086;2023-01-08T14:14:09;2.28;;;0.60;;
35444;SDS011;21562;49.476;6.086;2023-01-08T14:16:43;2.22;;;0.75;;
35444;SDS011;21562;49.476;6.086;2023-01-08T14:19:15;3.20;;;0.52;;
35444;SDS011;21562;49.476;6.086;2023-01-08T14:21:48;4.97;;;0.50;;
35444;SDS011;21562;49.476;6.086;2023-01-08T14:24:15;2.13;;;0.30;;
35444;SDS011;21562;49.476;6.086;2023-01-08T14:26:42;3.28;;;0.55;;
35444;SDS011;21562;49.476;6.086;2023-01-08T14:29:14;3.72;;;0.63;;
35444;SDS011;21562;49.476;6.086;2023-01-08T14:31:46;4.88;;;0.60;;
35444;SDS011;21562;49.476;6.086;2023-01-08T14:34:15;6.15;;;0.98;;
35444;SDS011;21562;49.476;6.086;2023-01-08T14:36:42;3.55;;;0.50;;
35444;SDS011;21562;49.476;6.086;2023-01-08T14:39:11;5.53;;;1.15;;
35444;SDS011;21562;49.476;6.086;2023-01-08T14:41:48;3.25;;;0.60;;
35444;SDS011;21562;49.476;6.086;2023-01-08T14:44:35;1.80;;;0.63;;
35444;SDS011;21562;49.476;6.086;2023-01-08T14:47:01;2.95;;;0.40;;
35444;SDS011;21562;49.476;6.086;2023-01-08T14:49:28;2.28;;;0.63;;
35444;SDS011;21562;49.476;6.086;2023-01-08T14:51:57;2.47;;;0.60;;
35444;SDS011;21562;49.476;6.086;2023-01-08T14:54:27;5.65;;;1.42;;
35444;SDS011;21562;49.476;6.086;2023-01-08T14:56:56;1.63;;;0.65;;
35444;SDS011;21562;49.476;6.086;2023-01-08T14:59:25;3.65;;;0.70;;
35444;SDS011;21562;49.476;6.086;2023-01-08T15:01:57;7.13;;;2.53;;
35444;SDS011;21562;49.476;6.086;2023-01-08T15:04:25;3.05;;;2.30;;
35444;SDS011;21562;49.476;6.086;2023-01-08T15:07:05;4.30;;;2.55;;
35444;SDS011;21562;49.476;6.086;2023-01-08T15:09:33;5.55;;;3.90;;
35444;SDS011;21562;49.476;6.086;2023-01-08T15:12:03;3.42;;;1.40;;
35444;SDS011;21562;49.476;6.086;2023-01-08T15:14:30;2.78;;;0.90;;
35444;SDS011;21562;49.476;6.086;2023-01-08T15:17:07;8.55;;;3.67;;
35444;SDS011;21562;49.476;6.086;2023-01-08T15:22:08;4.82;;;1.95;;
35444;SDS011;21562;49.476;6.086;2023-01-08T15:27:14;11.90;;;3.50;;
35444;SDS011;21562;49.476;6.086;2023-01-08T15:29:47;7.15;;;2.25;;
35444;SDS011;21562;49.476;6.086;2023-01-08T15:34:44;4.45;;;1.58;;
35444;SDS011;21562;49.476;6.086;2023-01-08T15:37:10;5.88;;;2.63;;
35444;SDS011;21562;49.476;6.086;2023-01-08T15:39:37;22.15;;;7.80;;
35444;SDS011;21562;49.476;6.086;2023-01-08T15:45:04;15.80;;;6.75;;
35444;SDS011;21562;49.476;6.086;2023-01-08T15:47:35;7.95;;;3.33;;
35444;SDS011;21562;49.476;6.086;2023-01-08T15:50:01;10.13;;;3.40;;
35444;SDS011;21562;49.476;6.086;2023-01-08T15:52:27;14.88;;;7.25;;
35444;SDS011;21562;49.476;6.086;2023-01-08T15:54:56;6.68;;;2.80;;
35444;SDS011;21562;49.476;6.086;2023-01-08T15:57:25;5.85;;;3.00;;
35444;SDS011;21562;49.476;6.086;2023-01-08T15:59:54;7.82;;;2.38;;
35444;SDS011;21562;49.476;6.086;2023-01-08T16:02:20;21.17;;;10.77;;
35444;SDS011;21562;49.476;6.086;2023-01-08T16:04:55;2.55;;;1.13;;
35444;SDS011;21562;49.476;6.086;2023-01-08T16:07:21;4.22;;;1.23;;
35444;SDS011;21562;49.476;6.086;2023-01-08T16:09:47;4.47;;;1.25;;
35444;SDS011;21562;49.476;6.086;2023-01-08T16:12:13;6.45;;;1.95;;
35444;SDS011;21562;49.476;6.086;2023-01-08T16:14:39;8.48;;;3.60;;
35444;SDS011;21562;49.476;6.086;2023-01-08T16:17:05;5.50;;;1.77;;
35444;SDS011;21562;49.476;6.086;2023-01-08T16:19:32;6.05;;;1.95;;
35444;SDS011;21562;49.476;6.086;2023-01-08T16:21:57;3.00;;;2.00;;
35444;SDS011;21562;49.476;6.086;2023-01-08T16:24:24;3.20;;;1.20;;
35444;SDS011;21562;49.476;6.086;2023-01-08T16:26:50;1.50;;;1.38;;
35444;SDS011;21562;49.476;6.086;2023-01-08T16:29:16;7.47;;;4.93;;
35444;SDS011;21562;49.476;6.086;2023-01-08T16:31:45;5.28;;;2.53;;
35444;SDS011;21562;49.476;6.086;2023-01-08T16:34:12;5.80;;;3.20;;
35444;SDS011;21562;49.476;6.086;2023-01-08T16:36:39;3.80;;;1.20;;
35444;SDS011;21562;49.476;6.086;2023-01-08T16:39:05;3.58;;;1.40;;
35444;SDS011;21562;49.476;6.086;2023-01-08T16:41:31;1.48;;;1.02;;
35444;SDS011;21562;49.476;6.086;2023-01-08T16:43:56;3.35;;;1.30;;